Time;durP1;ratioP1;P1;durP2;ratioP2;P2;SDS_P1;SDS_P2;PMS_P1;PMS_P2;Temp;Humidity;BMP_temperature;BMP_pressure;BME280_temperature;BME280_humidity;BME280_pressure;Samples;Min_cycle;Max_cycle;Signal;HPM_P1;HPM_P2
2023/07/19 00:02:00;;;;;;;8.27;4.00;;;;;;;16.01;68.87;100032.63;4214573;28;21113;-65
2023/07/19 00:04:26;;;;;;;10.30;3.90;;;;;;;16.02;68.98;100033.44;4223896;28;21225;-66
2023/07/19 00:06:54;;;;;;;7.83;3.77;;;;;;;16.00;68.90;100031.78;4224294;28;20297;-66
2023/07/19 00:09:21;;;;;;;9.63;3.37;;;;;;;15.89;69.33;100029.53;4215104;28;22828;-65
2023/07/19 00:11:48;;;;;;;8.70;3.80;;;;;;;15.88;69.59;100037.94;4223269;28;21130;-66
2023/07/19 00:14:14;;;;;;;12.27;4.07;;;;;;;15.84;69.83;100026.56;4232479;28;20303;-66
2023/07/19 00:16:41;;;;;;;7.60;3.87;;;;;;;15.81;69.89;100024.16;4216486;28;20247;-66
2023/07/19 00:19:08;;;;;;;12.00;4.17;;;;;;;15.81;70.06;100027.75;4216834;28;20240;-66
2023/07/19 00:21:46;;;;;;;8.40;4.00;;;;;;;15.83;70.15;100016.69;4219944;28;20283;-67
2023/07/19 00:24:12;;;;;;;10.30;4.27;;;;;;;15.82;70.55;100020.41;4214507;28;20238;-65
2023/07/19 00:26:39;;;;;;;10.10;4.40;;;;;;;15.75;70.87;100014.03;4215368;28;20366;-67
2023/07/19 00:29:06;;;;;;;11.27;4.67;;;;;;;15.65;71.73;100009.72;4218987;28;25384;-66
2023/07/19 00:31:33;;;;;;;12.07;4.40;;;;;;;15.71;71.24;100008.09;4215142;28;22528;-66
2023/07/19 00:33:59;;;;;;;8.70;3.90;;;;;;;15.63;71.83;100002.75;4217972;28;21137;-66
2023/07/19 00:36:26;;;;;;;9.23;3.90;;;;;;;15.49;72.27;100004.47;4212377;28;21999;-68
2023/07/19 00:38:53;;;;;;;8.37;3.80;;;;;;;15.44;72.68;99999.59;4215813;28;20336;-66
2023/07/19 00:41:19;;;;;;;10.00;3.37;;;;;;;15.43;72.55;100000.63;4223315;28;21316;-65
2023/07/19 00:43:49;;;;;;;12.50;3.83;;;;;;;15.47;72.21;100012.84;4224833;28;20267;-67
2023/07/19 00:46:17;;;;;;;10.23;4.13;;;;;;;15.52;71.87;100015.84;4219861;28;20229;-66
2023/07/19 00:48:44;;;;;;;9.83;3.60;;;;;;;15.48;71.80;100011.81;4210155;28;20244;-65
2023/07/19 00:51:11;;;;;;;10.70;3.37;;;;;;;15.46;71.73;100013.03;4222075;28;20247;-65
2023/07/19 00:53:39;;;;;;;9.93;3.60;;;;;;;15.50;71.38;100009.75;4225300;28;20304;-65
2023/07/19 00:56:07;;;;;;;13.33;4.13;;;;;;;15.46;71.33;100013.88;4221819;28;20263;-67
2023/07/19 00:58:35;;;;;;;10.00;3.03;;;;;;;15.40;71.45;100006.47;4225439;28;20691;-65
2023/07/19 01:01:06;;;;;;;11.60;3.93;;;;;;;15.44;71.30;100005.06;4226359;28;20413;-66
2023/07/19 01:03:33;;;;;;;10.40;3.53;;;;;;;15.42;71.26;99998.94;4217194;28;20958;-69
2023/07/19 01:06:00;;;;;;;9.67;3.17;;;;;;;15.36;71.85;99995.09;4216807;28;20593;-66
2023/07/19 01:08:27;;;;;;;8.57;3.40;;;;;;;15.34;71.67;99993.59;4205421;28;20229;-66
2023/07/19 01:10:54;;;;;;;13.07;3.47;;;;;;;15.29;71.41;99987.88;4221211;28;20234;-67
2023/07/19 01:13:21;;;;;;;11.80;3.33;;;;;;;15.30;71.08;99987.66;4216296;28;20405;-65
2023/07/19 01:15:47;;;;;;;8.47;3.40;;;;;;;15.31;70.86;99983.03;4226619;28;20332;-66
2023/07/19 01:18:14;;;;;;;6.20;3.07;;;;;;;15.30;71.06;99982.22;4219524;28;21647;-67
2023/07/19 01:20:41;;;;;;;13.10;3.80;;;;;;;15.22;72.00;99982.31;4220763;28;20710;-65
2023/07/19 01:23:08;;;;;;;7.97;3.33;;;;;;;15.21;72.03;99980.63;4218879;28;20226;-67
2023/07/19 01:25:35;;;;;;;9.87;3.20;;;;;;;15.18;71.92;99970.09;4218552;28;23116;-65
2023/07/19 01:28:01;;;;;;;7.37;3.50;;;;;;;15.19;71.84;99971.78;4223881;28;22224;-67
2023/07/19 01:30:28;;;;;;;4.97;2.70;;;;;;;15.11;72.29;99980.03;4213330;28;21040;-65
2023/07/19 01:32:55;;;;;;;9.13;3.03;;;;;;;15.10;72.00;99973.75;4221268;28;20365;-67
2023/07/19 01:35:22;;;;;;;10.13;3.30;;;;;;;15.17;71.95;99977.41;4216584;28;20360;-67
2023/07/19 01:37:49;;;;;;;10.20;3.00;;;;;;;15.12;71.78;99968.09;4212110;28;20300;-65
2023/07/19 01:40:15;;;;;;;10.47;3.40;;;;;;;15.12;71.99;99982.59;4221164;28;20240;-67
2023/07/19 01:42:42;;;;;;;10.17;3.40;;;;;;;15.12;72.15;99979.00;4213648;28;20259;-66
2023/07/19 01:45:09;;;;;;;4.93;3.00;;;;;;;15.00;72.75;99975.91;4232558;28;20328;-67
2023/07/19 01:47:36;;;;;;;9.87;3.10;;;;;;;14.95;72.87;99981.09;4215315;28;20423;-66
2023/07/19 01:50:04;;;;;;;10.83;3.50;;;;;;;14.94;72.78;99982.97;4227881;28;20238;-67
2023/07/19 01:52:30;;;;;;;8.37;3.17;;;;;;;14.94;73.13;99979.41;4215916;28;20289;-67
2023/07/19 01:54:57;;;;;;;7.33;3.07;;;;;;;14.87;73.07;99977.41;4214455;28;20492;-66
2023/07/19 01:57:24;;;;;;;9.90;3.00;;;;;;;14.87;73.26;99982.03;4218170;28;20334;-66
2023/07/19 01:59:51;;;;;;;9.20;3.30;;;;;;;14.82;73.42;99977.16;4220799;28;20346;-66
2023/07/19 02:02:17;;;;;;;6.13;3.00;;;;;;;14.81;73.75;99972.72;4226048;28;20608;-67
2023/07/19 02:04:44;;;;;;;8.70;3.30;;;;;;;14.80;73.78;99976.47;4200642;28;20232;-67
2023/07/19 02:07:11;;;;;;;6.57;2.87;;;;;;;14.78;73.82;99969.53;4213204;28;21557;-65
2023/07/19 02:09:39;;;;;;;8.73;3.10;;;;;;;14.77;73.67;99970.56;4213274;28;20323;-65
2023/07/19 02:12:06;;;;;;;7.93;3.10;;;;;;;14.75;73.93;99970.75;4201752;28;21075;-66
2023/07/19 02:14:33;;;;;;;9.50;3.03;;;;;;;14.70;74.07;99965.00;4210594;28;22909;-66
2023/07/19 02:16:59;;;;;;;6.17;3.30;;;;;;;14.72;73.77;99979.28;4213628;28;20325;-66
2023/07/19 02:19:26;;;;;;;13.73;3.43;;;;;;;14.69;73.66;99966.06;4213756;28;20247;-66
2023/07/19 02:21:52;;;;;;;8.00;3.03;;;;;;;14.62;73.99;99970.50;4212410;28;20236;-66
2023/07/19 02:24:19;;;;;;;6.43;3.00;;;;;;;14.67;73.77;99973.56;4208891;28;21421;-68
2023/07/19 02:26:45;;;;;;;11.70;4.00;;;;;;;14.64;74.02;99965.72;4219382;28;20236;-66
2023/07/19 02:29:12;;;;;;;9.60;3.80;;;;;;;14.57;74.30;99973.78;4227825;28;20570;-67
2023/07/19 02:31:39;;;;;;;7.10;3.27;;;;;;;14.62;74.52;99974.09;4215043;28;20346;-67
2023/07/19 02:34:09;;;;;;;8.73;3.53;;;;;;;14.58;74.67;99973.59;4206000;28;23273;-66
2023/07/19 02:36:37;;;;;;;12.33;3.23;;;;;;;14.55;74.74;99970.41;4216683;28;20252;-66
2023/07/19 02:39:05;;;;;;;15.30;3.27;;;;;;;14.54;74.73;99976.88;4212431;28;20236;-67
2023/07/19 02:41:31;;;;;;;6.33;3.40;;;;;;;14.54;74.91;99968.72;4215917;28;21144;-66
2023/07/19 02:43:59;;;;;;;9.07;3.10;;;;;;;14.56;74.75;99970.22;4210635;28;20334;-65
2023/07/19 02:46:26;;;;;;;6.00;3.03;;;;;;;14.57;74.79;99961.00;4213514;28;21157;-65
2023/07/19 02:48:52;;;;;;;13.80;3.40;;;;;;;14.57;74.85;99969.19;4204381;28;20595;-67
2023/07/19 02:51:19;;;;;;;9.10;3.30;;;;;;;14.57;74.75;99966.47;4211993;28;20242;-66
2023/07/19 02:53:46;;;;;;;7.27;3.40;;;;;;;14.57;75.50;99971.06;4220749;28;23208;-66
2023/07/19 02:56:13;;;;;;;5.30;2.93;;;;;;;14.56;75.30;99972.94;4249490;28;25031;-66
2023/07/19 02:58:40;;;;;;;9.37;3.17;;;;;;;14.51;75.14;99966.34;4235548;28;20330;-65
2023/07/19 03:01:07;;;;;;;13.10;3.63;;;;;;;14.63;74.66;99962.16;4232661;28;20291;-66
2023/07/19 03:03:34;;;;;;;9.70;3.37;;;;;;;14.57;75.38;99957.47;4245795;28;20294;-67
2023/07/19 03:06:02;;;;;;;9.27;2.90;;;;;;;14.60;75.26;99951.63;4254270;28;20268;-65
2023/07/19 03:08:29;;;;;;;10.07;3.10;;;;;;;14.57;75.32;99952.00;4242883;28;20233;-66
2023/07/19 03:10:55;;;;;;;11.07;3.80;;;;;;;14.48;75.63;99951.22;4260899;28;21390;-66
2023/07/19 03:13:22;;;;;;;7.43;3.50;;;;;;;14.57;75.07;99962.91;4240902;28;20484;-67
2023/07/19 03:15:50;;;;;;;7.13;3.93;;;;;;;14.67;74.72;99951.75;4229950;28;23591;-65
2023/07/19 03:18:17;;;;;;;7.73;3.67;;;;;;;14.76;74.32;99957.97;4237844;28;20231;-66
2023/07/19 03:20:43;;;;;;;6.93;3.27;;;;;;;14.75;74.53;99946.22;4221973;28;20690;-67
2023/07/19 03:23:10;;;;;;;6.67;2.70;;;;;;;14.72;74.66;99954.75;4232685;28;20249;-65
2023/07/19 03:25:38;;;;;;;9.03;3.30;;;;;;;14.79;74.33;99952.97;4236134;28;20231;-65
2023/07/19 03:28:06;;;;;;;8.07;3.60;;;;;;;14.91;73.91;99958.81;4234788;28;20253;-67
2023/07/19 03:30:32;;;;;;;11.37;3.53;;;;;;;14.95;73.99;99946.53;4226783;28;20280;-65
2023/07/19 03:32:59;;;;;;;11.63;3.87;;;;;;;15.02;73.93;99943.88;4240880;28;20241;-67
2023/07/19 03:35:26;;;;;;;17.17;4.70;;;;;;;15.23;71.20;99947.69;4224499;28;20769;-67
2023/07/19 03:37:53;;;;;;;8.13;3.70;;;;;;;15.39;68.46;99944.75;4251528;28;20397;-65
2023/07/19 03:40:19;;;;;;;9.27;3.97;;;;;;;15.65;67.03;99944.22;4220102;28;20238;-67
2023/07/19 03:42:46;;;;;;;17.57;4.57;;;;;;;15.86;65.65;99942.59;4225987;28;20239;-66
2023/07/19 03:45:13;;;;;;;14.43;4.53;;;;;;;15.94;65.78;99941.63;4222204;28;20228;-66
2023/07/19 03:47:39;;;;;;;12.17;4.63;;;;;;;16.09;64.94;99944.25;4237764;28;20240;-67
2023/07/19 03:50:07;;;;;;;12.93;5.07;;;;;;;16.18;64.32;99942.25;4217257;28;21158;-68
2023/07/19 03:52:33;;;;;;;13.43;4.40;;;;;;;15.96;65.20;99939.56;4204345;28;20228;-68
2023/07/19 03:55:00;;;;;;;13.37;4.80;;;;;;;16.15;64.65;99933.41;4219297;28;21623;-68
2023/07/19 03:57:26;;;;;;;10.67;4.80;;;;;;;16.14;65.21;99945.38;4218993;28;20229;-65
2023/07/19 03:59:54;;;;;;;13.27;4.23;;;;;;;16.19;65.54;99941.22;4212683;28;25455;-67
2023/07/19 04:02:22;;;;;;;7.83;3.83;;;;;;;16.29;65.36;99934.38;4214866;28;22265;-65
2023/07/19 04:04:49;;;;;;;12.37;4.70;;;;;;;16.30;64.73;99935.22;4232001;28;20237;-66
2023/07/19 04:07:16;;;;;;;12.03;4.40;;;;;;;16.41;64.54;99942.88;4222805;28;20272;-65
2023/07/19 04:09:44;;;;;;;12.93;4.63;;;;;;;16.50;64.14;99940.84;4218769;28;20253;-68
2023/07/19 04:12:10;;;;;;;15.23;5.07;;;;;;;16.52;63.84;99935.16;4220393;28;20236;-66
2023/07/19 04:14:38;;;;;;;8.83;3.73;;;;;;;16.58;63.29;99934.38;4222658;28;20662;-67
2023/07/19 04:17:05;;;;;;;12.80;4.37;;;;;;;16.69;63.14;99936.56;4238315;28;21310;-66
2023/07/19 04:19:31;;;;;;;9.43;4.20;;;;;;;16.85;62.86;99935.38;4218906;28;20238;-65
2023/07/19 04:21:58;;;;;;;8.80;4.33;;;;;;;17.00;62.96;99927.09;4223364;28;20545;-65
2023/07/19 04:24:25;;;;;;;9.60;4.30;;;;;;;17.08;63.74;99928.81;4223799;28;20227;-66
2023/07/19 04:26:51;;;;;;;8.47;4.73;;;;;;;16.93;63.17;99931.69;4234186;28;20236;-70
2023/07/19 04:29:19;;;;;;;10.47;3.53;;;;;;;17.09;62.20;99925.03;4232479;28;21120;-71
2023/07/19 04:31:46;;;;;;;7.93;3.97;;;;;;;17.28;61.84;99931.66;4223282;28;20289;-73
2023/07/19 04:34:13;;;;;;;6.20;3.37;;;;;;;17.42;61.81;99929.81;4234982;28;20319;-73
2023/07/19 04:36:39;;;;;;;10.03;4.37;;;;;;;17.58;61.66;99928.59;4235586;28;20242;-72
2023/07/19 04:39:06;;;;;;;9.97;4.30;;;;;;;17.62;61.28;99935.38;4224186;28;20243;-73
2023/07/19 04:41:32;;;;;;;16.27;6.20;;;;;;;17.61;61.34;99930.06;4219315;28;20970;-75
2023/07/19 04:43:59;;;;;;;12.00;5.00;;;;;;;17.61;61.25;99932.81;4242702;28;22862;-74
2023/07/19 04:46:26;;;;;;;9.73;4.60;;;;;;;17.88;60.74;99937.31;4215560;28;21404;-73
2023/07/19 04:48:53;;;;;;;11.57;5.27;;;;;;;17.75;61.62;99940.00;4228611;28;20516;-74
2023/07/19 04:51:19;;;;;;;10.83;4.20;;;;;;;18.03;61.18;99941.78;4233153;28;20256;-76
2023/07/19 04:53:46;;;;;;;12.00;4.50;;;;;;;18.21;60.60;99935.69;4250080;28;20409;-73
2023/07/19 04:56:13;;;;;;;11.33;3.80;;;;;;;18.04;58.74;99932.53;4243208;28;20236;-73
2023/07/19 04:58:40;;;;;;;9.03;4.80;;;;;;;18.16;58.06;99930.84;4211884;28;20845;-71
2023/07/19 05:01:08;;;;;;;10.70;4.03;;;;;;;18.28;57.80;99932.97;4226826;28;20302;-75
2023/07/19 05:03:35;;;;;;;6.73;3.50;;;;;;;18.45;57.48;99928.72;4231588;28;20342;-72
2023/07/19 05:06:03;;;;;;;10.40;3.50;;;;;;;18.74;56.83;99914.78;4214812;28;20239;-73
2023/07/19 05:08:29;;;;;;;12.87;3.53;;;;;;;18.74;55.90;99914.78;4223024;28;20404;-71
2023/07/19 05:10:56;;;;;;;6.30;2.93;;;;;;;18.63;54.30;99916.28;4225441;28;20243;-70
2023/07/19 05:13:23;;;;;;;6.63;2.63;;;;;;;18.63;54.74;99919.00;4225820;28;20240;-73
2023/07/19 05:15:50;;;;;;;8.93;3.20;;;;;;;18.74;54.63;99920.25;4231853;28;20986;-69
2023/07/19 05:18:17;;;;;;;7.53;2.67;;;;;;;18.63;55.28;99905.31;4220493;28;21408;-74
2023/07/19 05:20:43;;;;;;;6.40;2.57;;;;;;;18.98;54.55;99918.75;4234047;28;20236;-71
2023/07/19 05:23:11;;;;;;;15.53;3.10;;;;;;;19.02;53.86;99914.53;4229033;28;20614;-73
2023/07/19 05:25:39;;;;;;;11.90;2.50;;;;;;;19.24;54.96;99911.50;4374018;28;21603;-73
2023/07/19 05:28:10;;;;;;;6.87;2.53;;;;;;;19.43;54.95;99918.78;4328957;28;20748;-69
2023/07/19 05:30:39;;;;;;;7.57;2.70;;;;;;;19.45;54.11;99916.66;4318944;28;20231;-73
2023/07/19 05:33:06;;;;;;;7.43;2.30;;;;;;;19.31;53.21;99906.81;4247706;28;20236;-74
2023/07/19 05:35:33;;;;;;;7.33;2.73;;;;;;;19.68;52.39;99907.03;4235240;28;21442;-73
2023/07/19 05:38:00;;;;;;;7.00;2.50;;;;;;;20.33;50.41;99910.59;4217320;28;21304;-75
2023/07/19 05:40:27;;;;;;;5.17;2.47;;;;;;;20.70;49.61;99908.75;4217704;28;20236;-74
2023/07/19 05:42:53;;;;;;;10.73;2.90;;;;;;;21.25;48.25;99909.88;4224753;28;20238;-74
2023/07/19 05:45:20;;;;;;;15.93;3.53;;;;;;;21.79;46.75;99912.75;4221013;28;20959;-72
2023/07/19 05:47:47;;;;;;;7.60;3.00;;;;;;;22.49;45.01;99913.16;4224534;28;20240;-75
2023/07/19 05:50:14;;;;;;;9.80;3.10;;;;;;;23.30;42.54;99911.66;4227693;28;20473;-71
2023/07/19 05:52:40;;;;;;;7.17;2.30;;;;;;;23.69;39.41;99914.63;4223810;28;20314;-74
2023/07/19 05:55:07;;;;;;;8.53;3.00;;;;;;;24.16;38.93;99914.41;4221692;28;21028;-75
2023/07/19 05:57:34;;;;;;;6.30;2.53;;;;;;;25.56;36.60;99917.25;4216651;28;20400;-75
2023/07/19 06:00:06;;;;;;;11.07;2.67;;;;;;;26.62;34.01;99904.88;4219882;28;20239;-70
2023/07/19 06:02:45;;;;;;;8.03;3.20;;;;;;;27.48;33.19;99911.19;4216728;28;20688;-71
2023/07/19 06:05:20;;;;;;;9.67;2.53;;;;;;;27.93;31.99;99898.47;4196107;28;20238;-70
2023/07/19 06:07:47;;;;;;;12.38;2.50;;;;;;;29.18;31.12;99904.75;4203346;28;20505;-70
2023/07/19 06:10:14;;;;;;;15.37;2.50;;;;;;;28.78;30.98;99904.59;4196418;28;20379;-73
2023/07/19 06:12:42;;;;;;;13.63;2.63;;;;;;;28.18;32.92;99905.19;4211095;28;21206;-71
2023/07/19 06:15:09;;;;;;;12.30;2.83;;;;;;;28.45;32.12;99898.50;4207052;28;20291;-72
2023/07/19 06:17:40;;;;;;;8.20;2.00;;;;;;;30.32;29.39;99897.38;4207251;28;20691;-69
2023/07/19 06:20:10;;;;;;;12.30;2.70;;;;;;;31.50;26.65;99891.59;4195301;28;20259;-67
2023/07/19 06:22:37;;;;;;;10.35;2.47;;;;;;;31.93;26.24;99896.31;4209212;28;20724;-66
2023/07/19 06:25:06;;;;;;;10.37;2.27;;;;;;;31.78;25.49;99894.56;4204504;28;21598;-67
2023/07/19 06:27:32;;;;;;;17.38;2.50;;;;;;;31.86;25.33;99898.66;4200673;28;20694;-65
2023/07/19 06:29:59;;;;;;;19.55;3.30;;;;;;;31.34;26.13;99891.00;4217248;28;20353;-65
2023/07/19 06:32:26;;;;;;;19.77;3.13;;;;;;;32.86;24.40;99887.16;4220517;28;20304;-67
2023/07/19 06:34:53;;;;;;;18.58;2.80;;;;;;;33.74;23.74;99890.88;4213114;28;20235;-67
2023/07/19 06:37:19;;;;;;;19.83;3.25;;;;;;;33.00;24.28;99886.31;4205780;28;20554;-64
2023/07/19 06:39:48;;;;;;;24.23;3.80;;;;;;;31.65;25.38;99879.34;4211195;28;20331;-64
2023/07/19 06:42:14;;;;;;;13.25;3.05;;;;;;;32.57;24.86;99880.97;4232475;28;20806;-66
2023/07/19 06:44:41;;;;;;;8.82;2.30;;;;;;;32.84;23.95;99885.78;4210118;28;20248;-65
2023/07/19 06:47:08;;;;;;;8.10;2.20;;;;;;;32.75;24.66;99877.22;4213952;28;22869;-68
2023/07/19 06:49:35;;;;;;;6.68;1.70;;;;;;;33.42;23.69;99875.91;4213468;28;20272;-68
2023/07/19 06:52:01;;;;;;;10.75;2.53;;;;;;;32.39;24.30;99877.91;4204751;28;20300;-68
2023/07/19 06:54:28;;;;;;;5.95;2.10;;;;;;;32.50;24.38;99885.00;4211286;28;20535;-68
2023/07/19 06:56:55;;;;;;;5.78;1.88;;;;;;;33.13;23.62;99876.22;4218385;28;20241;-67
2023/07/19 06:59:21;;;;;;;8.10;2.08;;;;;;;33.80;22.90;99877.56;4231049;28;20358;-67
2023/07/19 07:01:48;;;;;;;7.20;2.10;;;;;;;34.65;21.50;99882.44;4262954;28;20231;-67
2023/07/19 07:04:15;;;;;;;4.50;1.48;;;;;;;34.95;21.04;99894.00;4260551;28;21038;-69
2023/07/19 07:06:42;;;;;;;6.03;1.60;;;;;;;32.52;23.50;99874.31;4223914;28;21150;-68
2023/07/19 07:09:08;;;;;;;9.60;1.90;;;;;;;32.47;23.96;99876.38;4251247;28;21491;-68
2023/07/19 07:11:35;;;;;;;6.07;1.48;;;;;;;33.90;21.47;99884.91;4259514;28;20288;-66
2023/07/19 07:14:02;;;;;;;4.70;1.35;;;;;;;34.29;20.57;99881.38;4274590;28;20261;-66
2023/07/19 07:16:30;;;;;;;3.95;1.33;;;;;;;34.84;20.21;99890.63;4248030;28;20384;-67
2023/07/19 07:18:57;;;;;;;6.57;1.90;;;;;;;33.50;22.18;99879.94;4254041;28;20309;-68
2023/07/19 07:21:23;;;;;;;9.63;1.73;;;;;;;33.77;22.05;99878.19;4248293;28;20429;-66
2023/07/19 07:23:50;;;;;;;7.32;1.63;;;;;;;33.21;22.80;99883.91;4259253;28;20235;-69
2023/07/19 07:26:17;;;;;;;7.40;1.58;;;;;;;32.96;22.75;99882.47;4232349;28;22823;-67
2023/07/19 07:28:44;;;;;;;5.88;1.40;;;;;;;34.30;21.29;99879.44;4252478;28;24879;-66
2023/07/19 07:31:11;;;;;;;4.60;1.42;;;;;;;34.00;21.36;99867.00;4242561;28;20358;-67
2023/07/19 07:33:39;;;;;;;4.95;1.10;;;;;;;31.68;23.68;99869.56;4251619;28;20229;-69
2023/07/19 07:36:06;;;;;;;4.43;1.38;;;;;;;31.04;24.33;99875.41;4281536;28;20227;-68
2023/07/19 07:38:33;;;;;;;5.05;1.30;;;;;;;31.25;24.14;99865.63;4284808;28;21463;-68
2023/07/19 07:41:01;;;;;;;5.88;1.27;;;;;;;29.71;26.29;99871.59;4255012;28;20713;-67
2023/07/19 07:43:31;;;;;;;6.45;1.58;;;;;;;28.89;28.47;99858.88;4243722;28;21636;-69
2023/07/19 07:45:58;;;;;;;4.18;1.30;;;;;;;28.09;28.40;99854.00;4239654;28;20822;-68
2023/07/19 07:48:25;;;;;;;4.47;1.50;;;;;;;28.51;29.43;99854.78;4239770;28;21666;-68
2023/07/19 07:50:52;;;;;;;4.20;1.40;;;;;;;29.12;27.85;99855.72;4255354;28;20236;-70
2023/07/19 07:53:20;;;;;;;4.78;1.35;;;;;;;29.16;26.81;99854.03;4273681;28;20223;-67
2023/07/19 07:55:48;;;;;;;4.78;1.20;;;;;;;28.96;25.65;99849.38;4264631;28;20257;-70
2023/07/19 07:58:15;;;;;;;2.92;1.25;;;;;;;29.19;26.00;99850.69;4235931;28;20229;-69
2023/07/19 08:00:41;;;;;;;4.00;1.10;;;;;;;28.43;26.91;99853.41;4244586;28;20251;-70
2023/07/19 08:03:09;;;;;;;5.30;1.33;;;;;;;28.24;28.02;99854.00;4262987;28;23717;-72
2023/07/19 08:05:37;;;;;;;6.07;1.33;;;;;;;28.39;26.92;99844.78;4240020;28;21158;-69
2023/07/19 08:08:06;;;;;;;5.80;1.10;;;;;;;28.53;27.16;99839.47;4246327;28;21324;-71
2023/07/19 08:10:33;;;;;;;6.82;1.42;;;;;;;28.19;27.72;99837.28;4244616;28;20239;-73
2023/07/19 08:13:00;;;;;;;3.47;1.23;;;;;;;28.50;27.02;99834.44;4237764;28;21137;-73
2023/07/19 08:15:26;;;;;;;2.67;1.20;;;;;;;28.84;26.49;99838.56;4234064;28;20238;-70
2023/07/19 08:17:53;;;;;;;3.80;1.27;;;;;;;28.43;27.08;99820.00;4274172;28;20235;-72
2023/07/19 08:20:20;;;;;;;7.13;1.40;;;;;;;28.13;27.46;99816.16;4251964;28;21896;-74
2023/07/19 08:22:47;;;;;;;5.43;1.55;;;;;;;28.01;28.58;99812.81;4267372;28;21647;-69
2023/07/19 08:25:16;;;;;;;3.60;1.20;;;;;;;28.59;27.52;99818.00;4243850;28;22815;-70
2023/07/19 08:27:53;;;;;;;2.63;1.13;;;;;;;28.96;26.69;99818.72;4274437;28;20258;-72
2023/07/19 08:30:20;;;;;;;3.13;1.30;;;;;;;27.08;29.64;99812.66;4251437;28;20265;-73
2023/07/19 08:32:48;;;;;;;3.40;1.35;;;;;;;27.58;28.54;99811.09;4207994;28;20253;-71
2023/07/19 08:35:15;;;;;;;3.73;1.13;;;;;;;28.00;28.46;99798.03;4235329;28;20237;-69
2023/07/19 08:37:43;;;;;;;2.53;1.30;;;;;;;28.77;25.87;99806.28;4243382;28;20232;-72
2023/07/19 08:40:15;;;;;;;4.55;1.48;;;;;;;28.46;27.40;99814.69;4224626;28;20610;-74
2023/07/19 08:42:42;;;;;;;4.93;1.58;;;;;;;28.64;27.45;99809.63;4211706;28;20375;-70
2023/07/19 08:45:10;;;;;;;7.60;1.70;;;;;;;29.13;25.67;99805.28;4214213;28;20450;-69
2023/07/19 08:47:38;;;;;;;3.38;1.33;;;;;;;27.30;28.23;99796.59;4238225;28;22772;-70
2023/07/19 08:50:06;;;;;;;4.97;1.70;;;;;;;27.98;27.37;99798.31;4226562;28;20314;-73
2023/07/19 08:52:32;;;;;;;2.20;1.17;;;;;;;28.75;26.01;99794.56;4228314;28;25655;-72
2023/07/19 08:55:00;;;;;;;6.25;1.52;;;;;;;29.08;25.67;99788.59;4226884;28;20236;-70
2023/07/19 08:57:27;;;;;;;5.32;1.35;;;;;;;28.30;27.75;99791.63;4223387;28;21480;-73
2023/07/19 08:59:54;;;;;;;5.03;1.40;;;;;;;27.93;29.25;99787.22;4241217;28;20236;-70
2023/07/19 09:02:21;;;;;;;2.80;1.15;;;;;;;27.20;28.81;99775.19;4233088;28;22521;-72
2023/07/19 09:05:10;;;;;;;8.48;1.42;;;;;;;26.98;30.15;99774.56;4228135;28;21006;-71
2023/07/19 09:07:39;;;;;;;13.15;1.60;;;;;;;27.30;29.75;99779.91;4232645;28;20230;-73
2023/07/19 09:10:07;;;;;;;2.83;1.30;;;;;;;27.16;28.69;99770.44;4260257;28;20446;-71
2023/07/19 09:12:38;;;;;;;3.37;1.30;;;;;;;27.52;28.21;99776.06;4233990;28;21544;-72
2023/07/19 09:15:07;;;;;;;2.47;1.10;;;;;;;27.05;28.87;99775.13;4206469;28;21901;-72
2023/07/19 09:17:41;;;;;;;6.85;1.50;;;;;;;26.47;31.01;99773.22;4240073;28;20395;-72
2023/07/19 09:20:08;;;;;;;3.93;1.80;;;;;;;27.35;29.16;99779.09;4252401;28;20231;-71
2023/07/19 09:22:39;;;;;;;8.98;1.80;;;;;;;27.19;30.38;99770.72;4239549;28;20231;-72
2023/07/19 09:25:09;;;;;;;4.25;1.40;;;;;;;26.44;30.92;99776.53;4217821;28;20247;-71
2023/07/19 09:27:36;;;;;;;3.95;1.27;;;;;;;26.79;30.38;99769.50;4243030;28;22950;-71
2023/07/19 09:30:11;;;;;;;9.30;1.43;;;;;;;26.43;30.77;99769.31;4235650;28;20228;-72
2023/07/19 09:32:38;;;;;;;5.13;1.27;;;;;;;26.40;30.15;99767.91;4223254;28;20243;-71
2023/07/19 09:35:07;;;;;;;2.47;1.13;;;;;;;26.64;30.08;99769.41;4242786;28;20274;-71
2023/07/19 09:37:34;;;;;;;3.33;1.37;;;;;;;26.91;28.86;99763.69;4238810;28;20227;-72
2023/07/19 09:40:04;;;;;;;5.70;1.50;;;;;;;26.93;29.05;99757.91;4229535;28;20248;-72
2023/07/19 09:42:32;;;;;;;4.30;1.10;;;;;;;26.41;29.62;99752.94;4229738;28;20658;-71
2023/07/19 09:45:00;;;;;;;5.03;1.20;;;;;;;26.33;29.33;99744.28;4219247;28;20248;-70
2023/07/19 09:47:28;;;;;;;4.37;1.47;;;;;;;26.94;29.99;99751.22;4220282;28;22421;-70
2023/07/19 09:49:56;;;;;;;1.90;1.20;;;;;;;27.31;31.12;99753.78;4225980;28;20609;-70
2023/07/19 09:52:25;;;;;;;5.00;1.20;;;;;;;27.46;29.97;99754.94;4235667;28;22030;-70
2023/07/19 09:54:53;;;;;;;3.83;1.13;;;;;;;26.91;29.76;99749.00;4237200;28;25189;-72
2023/07/19 09:57:23;;;;;;;4.60;1.13;;;;;;;26.70;30.00;99743.34;4226226;28;20223;-71
2023/07/19 09:59:51;;;;;;;6.67;1.23;;;;;;;26.07;30.28;99744.97;4230758;28;21995;-73
2023/07/19 10:02:18;;;;;;;7.68;1.70;;;;;;;26.33;28.96;99747.03;4234279;28;20257;-72
2023/07/19 10:04:47;;;;;;;14.65;3.50;;;;;;;26.26;29.76;99742.56;4258819;28;20236;-74
2023/07/19 10:07:24;;;;;;;6.60;2.03;;;;;;;26.61;29.16;99737.47;4256685;28;20351;-75
2023/07/19 10:10:01;;;;;;;8.73;2.33;;;;;;;26.64;28.28;99736.94;4233369;28;21135;-72
2023/07/19 10:12:28;;;;;;;5.03;1.40;;;;;;;26.28;29.18;99728.47;4268509;28;20224;-73
2023/07/19 10:15:06;;;;;;;3.50;1.07;;;;;;;26.61;28.06;99715.25;4225655;28;23206;-71
2023/07/19 10:17:41;;;;;;;2.77;1.20;;;;;;;26.51;28.28;99718.00;4255741;28;20236;-73
2023/07/19 10:20:09;;;;;;;6.43;1.57;;;;;;;26.45;30.01;99706.06;4226786;28;20623;-72
2023/07/19 10:23:06;;;;;;;2.10;1.10;;;;;;;27.13;28.20;99702.38;4233018;28;23285;-74
2023/07/19 10:25:45;;;;;;;5.30;1.50;;;;;;;26.37;28.34;99695.47;4223903;28;22560;-73
2023/07/19 10:28:13;;;;;;;2.67;1.30;;;;;;;26.85;28.97;99687.03;4255771;28;20231;-76
2023/07/19 10:30:46;;;;;;;3.60;1.42;;;;;;;26.84;29.25;99693.69;4231096;28;22929;-73
2023/07/19 10:33:15;;;;;;;2.80;1.20;;;;;;;26.68;29.23;99684.47;4217429;28;23109;-73
2023/07/19 10:35:42;;;;;;;4.30;1.10;;;;;;;26.61;30.91;99686.69;4232901;28;23074;-74
2023/07/19 10:38:30;;;;;;;3.43;1.27;;;;;;;26.27;29.46;99687.94;4241969;28;20237;-72
2023/07/19 10:41:02;;;;;;;1.97;1.13;;;;;;;26.33;29.16;99680.44;4236778;28;22244;-75
2023/07/19 10:43:32;;;;;;;5.03;1.50;;;;;;;26.43;29.75;99663.84;4240055;28;20231;-72
2023/07/19 10:46:10;;;;;;;2.77;1.50;;;;;;;26.78;30.70;99665.09;4252699;28;20244;-71
2023/07/19 10:48:38;;;;;;;3.40;1.30;;;;;;;26.70;30.00;99669.22;4245565;28;20231;-73
2023/07/19 10:51:08;;;;;;;5.43;1.47;;;;;;;26.51;30.83;99671.66;4235514;28;21626;-74
2023/07/19 10:53:50;;;;;;;2.92;1.08;;;;;;;26.65;30.53;99660.03;4241876;28;20311;-74
2023/07/19 10:56:18;;;;;;;3.80;1.27;;;;;;;27.48;29.51;99666.56;4225541;28;20230;-73
2023/07/19 10:58:46;;;;;;;7.57;1.33;;;;;;;27.12;30.33;99655.41;4235254;28;20521;-73
2023/07/19 11:01:12;;;;;;;9.73;1.37;;;;;;;27.52;27.94;99667.66;4223724;28;20239;-74
2023/07/19 11:03:42;;;;;;;9.77;2.20;;;;;;;27.20;29.42;99660.41;4204369;28;21853;-74
2023/07/19 11:06:09;;;;;;;3.40;1.50;;;;;;;26.89;30.24;99652.91;4225571;28;21660;-72
2023/07/19 11:08:36;;;;;;;4.75;1.48;;;;;;;27.52;29.02;99662.97;4220950;28;23254;-72
2023/07/19 11:11:04;;;;;;;3.57;1.23;;;;;;;26.52;28.62;99662.22;4225087;28;21133;-71
2023/07/19 11:13:30;;;;;;;2.70;1.20;;;;;;;26.62;29.09;99663.38;4239678;28;20323;-74
2023/07/19 11:15:58;;;;;;;4.82;1.23;;;;;;;26.76;29.44;99663.69;4229073;28;20697;-75
2023/07/19 11:18:30;;;;;;;4.97;1.23;;;;;;;26.70;29.75;99668.38;4218562;28;20230;-74
2023/07/19 11:20:57;;;;;;;5.97;1.27;;;;;;;26.71;29.54;99665.34;4232979;28;20843;-71
2023/07/19 11:23:25;;;;;;;5.07;1.42;;;;;;;26.48;29.80;99654.72;4210436;28;21136;-73
2023/07/19 11:26:03;;;;;;;1.75;0.90;;;;;;;26.77;29.23;99659.81;4239326;28;20230;-72
2023/07/19 11:28:42;;;;;;;19.98;2.65;;;;;;;26.69;28.91;99658.38;4202082;28;20238;-72
2023/07/19 11:31:11;;;;;;;3.92;1.60;;;;;;;26.70;29.60;99646.19;4219897;28;20247;-74
2023/07/19 11:33:40;;;;;;;2.78;1.38;;;;;;;27.53;28.69;99649.88;4217354;28;21902;-71